Time;durP1;ratioP1;P1;durP2;ratioP2;P2;SDS_P1;SDS_P2;PMS_P1;PMS_P2;Temp;Humidity;BMP_temperature;BMP_pressure;BME280_temperature;BME280_humidity;BME280_pressure;Samples;Min_cycle;Max_cycle;Signal;HPM_P1;HPM_P2
2023/05/01 00:00:24;;;;;;;15.52;6.82;;;2.20;89.20;;;;;;4992119;28;20053;-76
2023/05/01 00:02:51;;;;;;;16.33;6.75;;;2.20;89.30;;;;;;4993874;28;20057;-76
2023/05/01 00:05:18;;;;;;;19.95;7.43;;;2.20;88.80;;;;;;4993225;28;20440;-75
2023/05/01 00:07:45;;;;;;;15.60;6.82;;;2.10;89.30;;;;;;4993728;28;20053;-76
2023/05/01 00:10:12;;;;;;;15.75;7.40;;;2.10;90.10;;;;;;4992801;28;20050;-76
2023/05/01 00:12:39;;;;;;;19.52;7.50;;;2.10;90.10;;;;;;4995166;28;20061;-76
2023/05/01 00:15:06;;;;;;;29.45;8.73;;;2.20;89.60;;;;;;4993585;28;20057;-75
2023/05/01 00:17:33;;;;;;;18.23;7.95;;;2.20;89.40;;;;;;4990464;28;20050;-76
2023/05/01 00:20:00;;;;;;;16.73;7.97;;;2.10;89.70;;;;;;4994527;28;20403;-76
2023/05/01 00:22:27;;;;;;;16.75;8.05;;;2.00;88.90;;;;;;4993232;28;20050;-76
2023/05/01 00:24:54;;;;;;;19.23;7.75;;;2.00;89.40;;;;;;4992601;28;20064;-76
2023/05/01 00:27:21;;;;;;;17.88;7.15;;;2.00;89.60;;;;;;4992035;28;20153;-76
2023/05/01 00:29:47;;;;;;;14.77;6.78;;;2.00;90.00;;;;;;4993026;28;20212;-76
2023/05/01 00:32:14;;;;;;;21.25;8.00;;;1.90;90.10;;;;;;4993322;28;20050;-76
2023/05/01 00:34:41;;;;;;;22.13;8.35;;;1.90;89.60;;;;;;4992628;28;20297;-75
2023/05/01 00:37:08;;;;;;;14.52;6.85;;;1.90;89.60;;;;;;4991667;28;20060;-76
2023/05/01 00:39:35;;;;;;;16.13;7.85;;;1.80;90.00;;;;;;5008761;28;20061;-76
2023/05/01 00:42:02;;;;;;;17.92;7.90;;;1.80;89.70;;;;;;4993181;28;20208;-76
2023/05/01 00:44:29;;;;;;;19.83;7.10;;;1.70;90.10;;;;;;4993531;28;20050;-76
2023/05/01 00:46:59;;;;;;;23.27;7.72;;;1.70;90.60;;;;;;4993091;28;20060;-76
2023/05/01 00:49:26;;;;;;;21.67;7.35;;;1.80;91.20;;;;;;4993334;28;20200;-76
2023/05/01 00:51:53;;;;;;;21.10;7.55;;;1.70;90.70;;;;;;4994785;28;20144;-76
2023/05/01 00:54:20;;;;;;;15.77;6.88;;;1.80;90.90;;;;;;4994314;28;20517;-75
2023/05/01 00:56:47;;;;;;;15.27;6.40;;;1.70;91.30;;;;;;4993259;28;20172;-76
2023/05/01 00:59:14;;;;;;;18.85;7.70;;;1.70;90.30;;;;;;4992271;28;20490;-75
2023/05/01 01:01:41;;;;;;;18.05;6.15;;;1.70;90.60;;;;;;4992490;28;20057;-76
2023/05/01 01:04:08;;;;;;;18.15;6.25;;;1.60;90.70;;;;;;4992286;28;20565;-76
2023/05/01 01:06:51;;;;;;;19.45;6.40;;;1.70;90.80;;;;;;4994510;28;20058;-76
2023/05/01 01:09:33;;;;;;;18.60;6.35;;;1.70;91.20;;;;;;4997447;28;20061;-76
2023/05/01 01:12:19;;;;;;;15.40;6.18;;;1.70;91.00;;;;;;4997068;28;20063;-76
2023/05/01 01:15:28;;;;;;;13.65;5.45;;;1.60;90.80;;;;;;4996658;28;20057;-76
2023/05/01 01:18:31;;;;;;;15.13;5.70;;;1.50;91.10;;;;;;4996433;28;20057;-76
2023/05/01 01:21:25;;;;;;;11.73;6.22;;;1.40;91.20;;;;;;4958136;28;20057;-76
2023/05/01 01:23:52;;;;;;;15.00;5.85;;;1.40;91.20;;;;;;4995885;28;20128;-76
2023/05/01 01:26:51;;;;;;;18.42;6.28;;;1.30;91.10;;;;;;4995920;28;20053;-76
2023/05/01 01:29:41;;;;;;;13.60;5.90;;;1.30;91.10;;;;;;5007769;28;20512;-76
2023/05/01 01:32:27;;;;;;;19.95;5.80;;;1.20;91.10;;;;;;4993963;28;20053;-76
2023/05/01 01:34:58;;;;;;;16.60;6.32;;;1.20;91.40;;;;;;4995327;28;20060;-76
2023/05/01 01:37:37;;;;;;;16.35;5.40;;;1.30;92.10;;;;;;4996516;28;20049;-76
2023/05/01 01:40:12;;;;;;;16.98;5.53;;;1.30;91.50;;;;;;4996151;28;20046;-75
2023/05/01 01:42:45;;;;;;;19.08;6.03;;;1.30;91.70;;;;;;4994379;28;21282;-75
2023/05/01 01:45:28;;;;;;;11.82;4.90;;;1.30;91.30;;;;;;5010909;28;20080;-76
2023/05/01 01:47:56;;;;;;;12.02;5.88;;;1.20;91.80;;;;;;4994785;28;20080;-75
2023/05/01 01:50:25;;;;;;;15.20;5.70;;;1.20;91.70;;;;;;4996419;28;20053;-76
2023/05/01 01:52:54;;;;;;;15.40;5.38;;;1.20;92.00;;;;;;4994837;28;20418;-76
2023/05/01 01:55:26;;;;;;;15.18;6.28;;;1.10;91.70;;;;;;4999553;28;20987;-75
2023/05/01 01:57:54;;;;;;;18.75;6.75;;;1.10;92.20;;;;;;4995071;28;20354;-76
2023/05/01 02:00:21;;;;;;;14.77;5.45;;;1.00;91.70;;;;;;4994340;28;20057;-75
2023/05/01 02:02:49;;;;;;;17.38;5.90;;;1.00;91.90;;;;;;4995150;28;20061;-75
2023/05/01 02:05:18;;;;;;;15.20;5.90;;;1.00;93.00;;;;;;4995820;28;20057;-76
2023/05/01 02:07:47;;;;;;;19.70;5.50;;;0.90;92.90;;;;;;4993933;28;20522;-75
2023/05/01 02:10:17;;;;;;;10.90;5.13;;;0.90;93.10;;;;;;4994093;28;20687;-76
2023/05/01 02:12:47;;;;;;;13.40;5.35;;;0.90;92.80;;;;;;4993752;28;20057;-75
2023/05/01 02:15:17;;;;;;;14.18;5.20;;;0.90;92.90;;;;;;4994544;28;20046;-75
2023/05/01 02:17:44;;;;;;;14.23;5.88;;;0.90;92.80;;;;;;4993793;28;20050;-75
2023/05/01 02:20:12;;;;;;;15.80;6.75;;;0.90;92.90;;;;;;4994785;28;20589;-76
2023/05/01 02:22:40;;;;;;;15.90;6.35;;;0.90;93.20;;;;;;4994487;28;20049;-76
2023/05/01 02:25:12;;;;;;;16.05;6.55;;;0.90;92.90;;;;;;4992889;28;20570;-75
2023/05/01 02:28:00;;;;;;;17.65;6.55;;;0.90;92.50;;;;;;4996861;28;20058;-75
2023/05/01 02:30:27;;;;;;;17.90;6.30;;;0.90;92.70;;;;;;4995288;28;20062;-75
2023/05/01 02:32:56;;;;;;;20.13;6.95;;;0.90;92.70;;;;;;4995101;28;20064;-75
2023/05/01 02:35:23;;;;;;;16.63;6.82;;;0.90;92.50;;;;;;4995668;28;20497;-76
2023/05/01 02:37:50;;;;;;;16.05;6.07;;;0.90;92.90;;;;;;4995979;28;20133;-76
2023/05/01 02:40:17;;;;;;;16.63;7.50;;;0.80;92.40;;;;;;4996372;28;20534;-76
2023/05/01 02:42:46;;;;;;;14.43;5.80;;;0.90;92.90;;;;;;4995863;28;20050;-75
2023/05/01 02:45:19;;;;;;;18.10;6.60;;;0.90;92.70;;;;;;4995198;28;20168;-75
2023/05/01 02:47:50;;;;;;;17.83;6.60;;;0.90;92.80;;;;;;4995279;28;20062;-76
2023/05/01 02:50:19;;;;;;;18.15;7.63;;;0.80;93.10;;;;;;4994720;28;20144;-76
2023/05/01 02:52:46;;;;;;;15.93;6.18;;;0.80;93.00;;;;;;4993711;28;20049;-76
2023/05/01 02:55:14;;;;;;;21.48;6.55;;;0.90;93.10;;;;;;4994207;28;20053;-76
2023/05/01 02:57:41;;;;;;;15.85;6.43;;;0.90;93.40;;;;;;4995741;28;20140;-76
2023/05/01 03:00:11;;;;;;;15.52;6.50;;;0.80;93.00;;;;;;4996535;28;20141;-75
2023/05/01 03:02:39;;;;;;;32.78;6.45;;;0.80;93.60;;;;;;4996069;28;20557;-75
2023/05/01 03:05:07;;;;;;;12.50;6.10;;;0.80;93.20;;;;;;4993855;28;20080;-75
2023/05/01 03:07:34;;;;;;;15.95;7.03;;;0.80;93.70;;;;;;4990081;28;20054;-74
2023/05/01 03:10:05;;;;;;;15.18;6.18;;;0.80;93.70;;;;;;4992329;28;20796;-75
2023/05/01 03:12:32;;;;;;;14.77;5.82;;;0.80;93.70;;;;;;5006758;28;20056;-75
2023/05/01 03:14:58;;;;;;;14.70;5.38;;;0.80;93.80;;;;;;4991315;28;20056;-75
2023/05/01 03:17:26;;;;;;;15.35;5.38;;;0.80;93.60;;;;;;4988821;28;20053;-75
2023/05/01 03:19:53;;;;;;;21.05;6.13;;;0.70;93.30;;;;;;4991965;28;20057;-75
2023/05/01 03:22:20;;;;;;;14.43;6.80;;;0.70;93.50;;;;;;4994568;28;20077;-75
2023/05/01 03:24:48;;;;;;;19.85;7.10;;;0.60;93.50;;;;;;4992071;28;20053;-75
2023/05/01 03:27:15;;;;;;;15.98;6.97;;;0.60;93.40;;;;;;4993927;28;20060;-75
2023/05/01 03:29:42;;;;;;;21.48;6.53;;;0.60;93.50;;;;;;4987810;28;20529;-75
2023/05/01 03:32:09;;;;;;;15.98;6.22;;;0.60;94.00;;;;;;4993559;28;20070;-75
2023/05/01 03:34:36;;;;;;;14.23;6.07;;;0.60;93.70;;;;;;4993112;28;20050;-75
2023/05/01 03:37:03;;;;;;;18.15;6.63;;;0.60;93.70;;;;;;4994905;28;20077;-75
2023/05/01 03:39:29;;;;;;;16.92;6.82;;;0.50;94.00;;;;;;4992733;28;20046;-75
2023/05/01 03:41:57;;;;;;;16.23;5.88;;;0.60;94.10;;;;;;4994916;28;20046;-75
2023/05/01 03:44:24;;;;;;;14.32;6.25;;;0.60;94.30;;;;;;4994814;28;20664;-75
2023/05/01 03:46:51;;;;;;;13.02;5.57;;;0.60;94.30;;;;;;4993599;28;20050;-75
2023/05/01 03:49:18;;;;;;;15.43;5.72;;;0.60;94.70;;;;;;4991021;28;20406;-75
2023/05/01 03:51:45;;;;;;;21.48;7.40;;;0.60;94.60;;;;;;4994936;28;20603;-75
2023/05/01 03:54:12;;;;;;;14.82;6.20;;;0.60;94.40;;;;;;4995070;28;20057;-75
2023/05/01 03:56:38;;;;;;;16.50;6.80;;;0.60;94.70;;;;;;4993575;28;20054;-75
2023/05/01 03:59:06;;;;;;;18.65;6.63;;;0.70;94.70;;;;;;4994505;28;20057;-75
2023/05/01 04:01:33;;;;;;;20.20;6.53;;;0.70;95.20;;;;;;4993769;28;20064;-75
2023/05/01 04:04:00;;;;;;;21.25;6.93;;;0.70;95.00;;;;;;4995093;28;20053;-75
2023/05/01 04:06:28;;;;;;;21.27;6.30;;;0.70;94.90;;;;;;4994193;28;20604;-75
2023/05/01 04:08:55;;;;;;;13.65;6.20;;;0.80;95.20;;;;;;4995546;28;20072;-75
2023/05/01 04:11:22;;;;;;;14.70;6.80;;;0.80;94.70;;;;;;4990215;28;20120;-74
2023/05/01 04:13:49;;;;;;;16.80;6.65;;;0.90;95.00;;;;;;4995212;28;20193;-75
2023/05/01 04:16:16;;;;;;;14.35;5.97;;;0.90;94.90;;;;;;4994620;28;20503;-75
2023/05/01 04:18:44;;;;;;;17.02;6.43;;;0.90;95.50;;;;;;4995355;28;20061;-75
2023/05/01 04:21:10;;;;;;;26.33;7.20;;;1.10;96.00;;;;;;4993435;28;20050;-76
2023/05/01 04:23:37;;;;;;;15.40;6.53;;;1.20;96.60;;;;;;4990155;28;20448;-76
2023/05/01 04:26:05;;;;;;;16.15;5.88;;;1.30;96.40;;;;;;4992177;28;20213;-76
2023/05/01 04:28:31;;;;;;;29.77;7.80;;;1.30;96.00;;;;;;4991514;28;20498;-75
2023/05/01 04:30:58;;;;;;;14.40;6.60;;;1.50;95.60;;;;;;4992855;28;20132;-76
2023/05/01 04:33:27;;;;;;;14.20;6.45;;;1.50;95.80;;;;;;4992536;28;20058;-76
2023/05/01 04:35:53;;;;;;;20.80;7.32;;;1.60;95.50;;;;;;4992983;28;20053;-75
2023/05/01 04:38:21;;;;;;;25.90;7.10;;;1.70;95.30;;;;;;4992543;28;20057;-76
2023/05/01 04:40:48;;;;;;;16.48;7.80;;;1.80;95.00;;;;;;4990285;28;20049;-76
2023/05/01 04:43:15;;;;;;;17.45;7.65;;;1.90;95.00;;;;;;4995347;28;20144;-76
2023/05/01 04:45:41;;;;;;;16.45;6.70;;;2.00;94.60;;;;;;4998664;28;20055;-76
2023/05/01 04:48:08;;;;;;;14.75;6.95;;;2.00;94.70;;;;;;4996514;28;20050;-76
2023/05/01 04:50:36;;;;;;;17.92;7.10;;;2.20;94.50;;;;;;4996226;28;20062;-76
2023/05/01 04:53:03;;;;;;;21.95;7.97;;;2.30;94.30;;;;;;4997638;28;20057;-76
2023/05/01 04:55:30;;;;;;;21.58;7.10;;;2.40;94.00;;;;;;4996642;28;20062;-76
2023/05/01 04:57:57;;;;;;;14.80;6.35;;;2.50;93.70;;;;;;4997860;28;20053;-76
2023/05/01 05:00:23;;;;;;;14.68;6.60;;;2.60;93.50;;;;;;5012432;28;20054;-76
2023/05/01 05:02:50;;;;;;;15.38;6.25;;;2.80;93.90;;;;;;4998238;28;20050;-76
2023/05/01 05:05:17;;;;;;;17.65;6.63;;;2.90;93.50;;;;;;4996232;28;20056;-76
2023/05/01 05:07:44;;;;;;;18.05;6.10;;;3.10;93.30;;;;;;4995844;28;20120;-75
2023/05/01 05:10:11;;;;;;;21.05;5.95;;;3.20;92.80;;;;;;4994716;28;20050;-75
2023/05/01 05:12:38;;;;;;;19.23;6.82;;;3.40;92.60;;;;;;4997325;28;20505;-76
2023/05/01 05:15:05;;;;;;;17.20;6.45;;;3.50;91.80;;;;;;4997738;28;20057;-76
2023/05/01 05:17:32;;;;;;;14.23;6.13;;;3.70;91.30;;;;;;4995412;28;20156;-76
2023/05/01 05:19:59;;;;;;;14.98;6.00;;;3.80;91.40;;;;;;4997332;28;20084;-76
2023/05/01 05:22:26;;;;;;;14.85;5.75;;;3.90;90.60;;;;;;4995450;28;20050;-76
2023/05/01 05:24:54;;;;;;;16.58;5.50;;;4.00;90.50;;;;;;4995539;28;20061;-76
2023/05/01 05:27:21;;;;;;;25.48;6.47;;;4.20;90.10;;;;;;4996874;28;20064;-75
2023/05/01 05:29:49;;;;;;;13.43;5.72;;;4.30;89.80;;;;;;4996222;28;20761;-76
2023/05/01 05:32:16;;;;;;;21.90;6.18;;;4.40;89.40;;;;;;4996502;28;20057;-76
2023/05/01 05:34:43;;;;;;;12.38;5.70;;;4.50;89.00;;;;;;4996980;28;20054;-76
2023/05/01 05:37:10;;;;;;;15.82;5.10;;;4.70;88.40;;;;;;4995187;28;20042;-76
2023/05/01 05:39:37;;;;;;;16.48;5.00;;;4.80;87.80;;;;;;4996816;28;20053;-76
2023/05/01 05:42:04;;;;;;;17.42;5.95;;;4.90;87.60;;;;;;4996124;28;20100;-76
2023/05/01 05:44:34;;;;;;;16.38;5.50;;;5.10;87.60;;;;;;4994684;28;20053;-76
2023/05/01 05:47:01;;;;;;;14.88;5.22;;;5.20;87.00;;;;;;4993507;28;20053;-76
2023/05/01 05:49:28;;;;;;;16.45;5.18;;;5.40;86.10;;;;;;4993219;28;20045;-76
2023/05/01 05:51:55;;;;;;;15.90;5.50;;;5.50;85.40;;;;;;4994221;28;20790;-76
2023/05/01 05:54:22;;;;;;;14.82;4.80;;;5.70;85.10;;;;;;4996644;28;20050;-76
2023/05/01 05:56:49;;;;;;;16.88;6.45;;;5.90;84.10;;;;;;4995829;28;20053;-76
2023/05/01 05:59:15;;;;;;;15.93;5.40;;;6.00;84.40;;;;;;4993355;28;20491;-76
2023/05/01 06:01:43;;;;;;;11.30;5.07;;;6.20;83.20;;;;;;4993323;28;20050;-76
2023/05/01 06:04:10;;;;;;;14.25;4.70;;;6.50;82.40;;;;;;4995161;28;20409;-76
2023/05/01 06:06:37;;;;;;;14.55;5.25;;;6.70;81.90;;;;;;4995467;28;20053;-76
2023/05/01 06:09:06;;;;;;;20.95;4.82;;;7.00;79.90;;;;;;4995652;28;20159;-76
2023/05/01 06:11:33;;;;;;;17.55;5.05;;;7.30;80.70;;;;;;4994840;28;20050;-76
2023/05/01 06:14:01;;;;;;;12.65;5.07;;;7.70;79.50;;;;;;4994442;28;20524;-76
2023/05/01 06:16:28;;;;;;;10.15;4.07;;;8.10;78.30;;;;;;4996789;28;20451;-76
2023/05/01 06:18:55;;;;;;;13.75;3.47;;;8.50;76.60;;;;;;4995366;28;20077;-76
2023/05/01 06:21:22;;;;;;;7.15;3.65;;;9.00;75.80;;;;;;4996612;28;20050;-76
2023/05/01 06:23:49;;;;;;;5.82;3.13;;;9.50;73.50;;;;;;4994150;28;20045;-76
2023/05/01 06:26:16;;;;;;;10.80;3.70;;;9.90;71.60;;;;;;4996556;28;20064;-76
2023/05/01 06:28:43;;;;;;;12.32;3.40;;;10.50;70.70;;;;;;4995775;28;20543;-76
2023/05/01 06:31:10;;;;;;;7.88;3.67;;;11.20;68.20;;;;;;4991758;28;20054;-78
2023/05/01 06:33:37;;;;;;;5.95;3.15;;;11.70;66.30;;;;;;4996395;28;20073;-76
2023/05/01 06:36:04;;;;;;;10.50;3.00;;;12.40;63.40;;;;;;4994749;28;20056;-76
2023/05/01 06:38:31;;;;;;;7.57;2.75;;;12.90;60.50;;;;;;4995915;28;20057;-75
2023/05/01 06:40:58;;;;;;;8.77;3.00;;;13.50;58.40;;;;;;4995362;28;20750;-76
2023/05/01 06:43:29;;;;;;;8.48;2.78;;;14.00;57.00;;;;;;4994204;28;20969;-77
2023/05/01 06:45:56;;;;;;;8.05;2.83;;;14.90;56.10;;;;;;4993005;28;20100;-76
2023/05/01 06:48:23;;;;;;;5.45;2.47;;;15.60;54.90;;;;;;4991150;28;20045;-76
2023/05/01 06:50:50;;;;;;;6.13;2.65;;;16.00;53.20;;;;;;5010164;28;20172;-79
2023/05/01 06:53:17;;;;;;;9.65;2.42;;;16.30;50.80;;;;;;4993222;28;20085;-78
2023/05/01 06:55:43;;;;;;;5.88;2.72;;;16.20;51.60;;;;;;4995959;28;20184;-84
2023/05/01 06:58:10;;;;;;;8.70;2.80;;;16.70;50.10;;;;;;4996128;28;20045;-80
2023/05/01 07:00:50;;;;;;;7.60;2.90;;;16.60;50.50;;;;;;4994967;28;20600;-78
2023/05/01 07:03:19;;;;;;;6.55;2.92;;;16.80;51.30;;;;;;4991245;28;20391;-85
2023/05/01 07:05:47;;;;;;;9.50;2.75;;;16.90;48.90;;;;;;4994673;28;20090;-81
2023/05/01 07:08:14;;;;;;;10.93;2.50;;;17.60;49.10;;;;;;4994148;28;20046;-81
2023/05/01 07:10:41;;;;;;;10.27;2.30;;;18.20;47.80;;;;;;4994238;28;20656;-87
2023/05/01 07:13:08;;;;;;;10.73;2.40;;;17.70;47.40;;;;;;4995816;28;20050;-91
2023/05/01 07:15:36;;;;;;;7.03;2.60;;;18.10;46.80;;;;;;4997017;28;20049;-88
2023/05/01 07:18:04;;;;;;;11.00;2.28;;;18.70;46.60;;;;;;4996212;28;20507;-89
2023/05/01 07:20:33;;;;;;;8.52;2.75;;;18.90;45.50;;;;;;4998751;28;20058;-91
2023/05/01 07:23:00;;;;;;;7.57;2.80;;;19.50;45.60;;;;;;4996040;28;20140;-86
2023/05/01 07:25:27;;;;;;;6.25;2.25;;;19.90;44.70;;;;;;4994856;28;20050;-90
2023/05/01 07:27:54;;;;;;;6.93;2.55;;;19.60;44.20;;;;;;4995104;28;20045;-83
2023/05/01 07:30:21;;;;;;;4.72;2.05;;;19.10;45.10;;;;;;4992360;28;20834;-84
2023/05/01 07:32:48;;;;;;;5.90;2.17;;;19.20;45.70;;;;;;4993246;28;20081;-79
2023/05/01 07:35:15;;;;;;;9.30;2.63;;;19.80;44.70;;;;;;5006132;28;20046;-80
2023/05/01 07:37:42;;;;;;;4.60;2.20;;;20.20;44.80;;;;;;4992191;28;20053;-81
2023/05/01 07:40:09;;;;;;;7.07;2.30;;;20.40;43.60;;;;;;5009470;28;20061;-79
2023/05/01 07:42:36;;;;;;;5.90;2.75;;;20.30;45.00;;;;;;4991109;28;20050;-77
2023/05/01 07:45:04;;;;;;;4.07;1.90;;;20.60;44.10;;;;;;4993960;28;20399;-77
2023/05/01 07:47:30;;;;;;;5.32;2.08;;;20.80;42.50;;;;;;4992164;28;20643;-79
2023/05/01 07:49:58;;;;;;;5.93;2.47;;;20.80;42.80;;;;;;4990709;28;20062;-78
2023/05/01 07:52:25;;;;;;;5.20;2.00;;;20.30;44.60;;;;;;4991742;28;20070;-77
2023/05/01 07:54:52;;;;;;;5.40;2.30;;;20.40;44.10;;;;;;4992202;28;20057;-79
2023/05/01 07:57:19;;;;;;;6.70;2.13;;;20.90;42.60;;;;;;4995509;28;20058;-78
2023/05/01 07:59:46;;;;;;;9.23;2.20;;;21.20;42.00;;;;;;4993982;28;20440;-78
2023/05/01 08:02:16;;;;;;;8.50;2.33;;;21.00;43.40;;;;;;4988418;28;20304;-77
2023/05/01 08:04:44;;;;;;;8.35;2.30;;;20.90;42.40;;;;;;4993708;28;20061;-78
2023/05/01 08:07:11;;;;;;;6.95;2.03;;;20.60;44.50;;;;;;4992565;28;20050;-81
2023/05/01 08:09:38;;;;;;;7.25;2.25;;;20.50;43.90;;;;;;4993110;28;20050;-79
2023/05/01 08:12:05;;;;;;;6.22;2.22;;;20.50;43.00;;;;;;4994003;28;20063;-79
2023/05/01 08:14:32;;;;;;;7.65;2.42;;;20.30;42.10;;;;;;4993361;28;20045;-76
2023/05/01 08:16:59;;;;;;;7.65;2.40;;;20.20;42.20;;;;;;4997081;28;20060;-76
2023/05/01 08:19:26;;;;;;;9.88;2.17;;;20.40;42.00;;;;;;4996778;28;20054;-76
2023/05/01 08:21:53;;;;;;;6.38;2.28;;;20.60;42.90;;;;;;4999494;28;20080;-76
2023/05/01 08:24:20;;;;;;;6.32;2.08;;;20.80;43.10;;;;;;4997522;28;20057;-77
2023/05/01 08:26:47;;;;;;;3.53;2.05;;;21.00;43.10;;;;;;4999665;28;20456;-77
2023/05/01 08:29:14;;;;;;;6.90;2.15;;;21.10;41.90;;;;;;4996922;28;20604;-76
2023/05/01 08:31:42;;;;;;;5.00;2.03;;;21.00;40.70;;;;;;4999163;28;20058;-76
2023/05/01 08:34:09;;;;;;;10.50;2.20;;;20.90;41.60;;;;;;4998967;28;20049;-76
2023/05/01 08:36:37;;;;;;;7.05;2.40;;;21.00;42.10;;;;;;4997853;28;20054;-77
2023/05/01 08:39:04;;;;;;;5.88;2.20;;;20.90;39.40;;;;;;4997776;28;20064;-76
2023/05/01 08:41:31;;;;;;;9.20;2.28;;;21.20;40.80;;;;;;4997148;28;20054;-77
2023/05/01 08:44:00;;;;;;;5.07;1.92;;;21.30;41.30;;;;;;4996128;28;20057;-77
2023/05/01 08:46:47;;;;;;;8.10;2.20;;;21.80;40.40;;;;;;4997028;28;20131;-76
2023/05/01 08:49:16;;;;;;;7.75;2.15;;;22.10;40.80;;;;;;4996657;28;20109;-77
2023/05/01 08:51:47;;;;;;;4.65;2.17;;;22.60;40.40;;;;;;4995822;28;20171;-77
2023/05/01 08:54:15;;;;;;;7.95;2.15;;;22.50;39.70;;;;;;4998790;28;20161;-77
2023/05/01 08:56:43;;;;;;;8.13;2.10;;;22.70;39.80;;;;;;4998426;28;20579;-77
2023/05/01 08:59:13;;;;;;;7.38;2.60;;;22.80;39.90;;;;;;4997021;28;20073;-76
2023/05/01 09:01:44;;;;;;;8.48;2.80;;;22.80;38.10;;;;;;4997181;28;20183;-77
2023/05/01 09:04:13;;;;;;;7.88;2.28;;;23.10;37.70;;;;;;4996698;28;20057;-77
2023/05/01 09:06:40;;;;;;;5.40;2.35;;;23.20;37.10;;;;;;5012952;28;20081;-77
2023/05/01 09:09:07;;;;;;;5.85;2.47;;;23.30;38.40;;;;;;4998833;28;20050;-77
2023/05/01 09:11:33;;;;;;;8.15;2.55;;;23.00;39.70;;;;;;4996752;28;20046;-77
2023/05/01 09:14:04;;;;;;;6.28;2.30;;;23.30;39.40;;;;;;4996755;28;20050;-77
2023/05/01 09:16:31;;;;;;;5.80;3.00;;;23.50;36.70;;;;;;4996016;28;20053;-77
2023/05/01 09:18:58;;;;;;;3.70;2.38;;;23.50;37.70;;;;;;4998306;28;20065;-77
2023/05/01 09:21:30;;;;;;;10.23;2.42;;;24.00;35.90;;;;;;4998012;28;20160;-77
2023/05/01 09:23:57;;;;;;;7.72;2.35;;;23.30;35.90;;;;;;4996165;28;20156;-77
2023/05/01 09:26:25;;;;;;;4.60;2.40;;;23.20;36.20;;;;;;4996267;28;20407;-77
2023/05/01 09:28:56;;;;;;;9.63;2.15;;;23.30;36.50;;;;;;4993089;28;20561;-77
2023/05/01 09:31:29;;;;;;;6.57;2.65;;;23.30;38.00;;;;;;4994447;28;20458;-78
2023/05/01 09:33:58;;;;;;;11.02;2.63;;;23.90;39.40;;;;;;4998344;28;20460;-77
2023/05/01 09:36:30;;;;;;;4.78;2.72;;;24.70;35.60;;;;;;4996188;28;20515;-77
2023/05/01 09:39:00;;;;;;;10.27;3.40;;;24.70;35.50;;;;;;4995922;28;20054;-77
2023/05/01 09:41:27;;;;;;;8.25;3.00;;;25.00;35.00;;;;;;4996612;28;20057;-77
2023/05/01 09:43:56;;;;;;;6.22;2.47;;;25.00;35.80;;;;;;4996109;28;20054;-77
2023/05/01 09:46:24;;;;;;;9.43;2.60;;;25.20;34.10;;;;;;5009386;28;20060;-77
2023/05/01 09:48:59;;;;;;;5.13;2.40;;;25.50;33.80;;;;;;4995691;28;20513;-78
2023/05/01 09:51:31;;;;;;;6.35;2.40;;;25.50;33.50;;;;;;4998114;28;20053;-78
2023/05/01 09:54:01;;;;;;;7.63;2.25;;;25.60;33.90;;;;;;4997581;28;20045;-78
2023/05/01 09:56:30;;;;;;;6.47;2.40;;;25.80;34.60;;;;;;4996230;28;20062;-78
2023/05/01 09:59:14;;;;;;;5.35;2.28;;;26.00;33.40;;;;;;4995792;28;20180;-77
2023/05/01 10:01:44;;;;;;;5.72;2.30;;;26.20;33.50;;;;;;4994673;28;20529;-77
2023/05/01 10:04:12;;;;;;;4.90;2.30;;;26.30;33.50;;;;;;4996490;28;20065;-77
2023/05/01 10:06:39;;;;;;;8.73;2.35;;;26.10;32.50;;;;;;4997211;28;20321;-78
2023/05/01 10:09:15;;;;;;;7.40;2.58;;;25.80;33.10;;;;;;4996586;28;20481;-78
2023/05/01 10:11:51;;;;;;;6.43;2.35;;;25.50;33.00;;;;;;4996527;28;20077;-78
2023/05/01 10:14:19;;;;;;;4.55;2.35;;;25.70;33.40;;;;;;4996536;28;20050;-78
2023/05/01 10:16:46;;;;;;;7.07;2.50;;;26.00;34.20;;;;;;4997290;28;20058;-78
2023/05/01 10:19:16;;;;;;;5.53;2.20;;;26.50;34.10;;;;;;4995351;28;20083;-78
2023/05/01 10:21:42;;;;;;;7.32;3.03;;;26.30;33.50;;;;;;4995324;28;20049;-78
2023/05/01 10:24:10;;;;;;;9.05;2.53;;;26.30;35.00;;;;;;4997213;28;20054;-78
2023/05/01 10:26:37;;;;;;;10.65;2.53;;;26.80;32.00;;;;;;4995894;28;20054;-78
2023/05/01 10:29:04;;;;;;;8.80;2.33;;;27.30;34.00;;;;;;4996300;28;20053;-78
2023/05/01 10:31:31;;;;;;;8.20;2.60;;;27.70;33.00;;;;;;4995063;28;20057;-78
2023/05/01 10:34:00;;;;;;;5.32;2.10;;;27.70;32.30;;;;;;4995294;28;20046;-78
2023/05/01 10:36:33;;;;;;;14.73;2.88;;;27.50;31.90;;;;;;4997186;28;20061;-78
2023/05/01 10:39:00;;;;;;;9.02;2.60;;;27.20;32.10;;;;;;5008280;28;20057;-78
2023/05/01 10:42:03;;;;;;;5.38;2.20;;;26.70;33.80;;;;;;4995861;28;20068;-79
2023/05/01 10:44:31;;;;;;;5.43;1.90;;;26.10;34.30;;;;;;4995241;28;20148;-78
2023/05/01 10:46:58;;;;;;;5.63;2.17;;;26.30;33.00;;;;;;4996581;28;20498;-78
2023/05/01 10:49:44;;;;;;;6.43;2.22;;;26.50;34.30;;;;;;4995378;28;20562;-78
2023/05/01 10:52:12;;;;;;;7.28;2.22;;;26.70;33.90;;;;;;4994899;28;20425;-78
2023/05/01 10:54:38;;;;;;;6.55;2.28;;;26.50;33.90;;;;;;4994269;28;20058;-78
2023/05/01 10:57:05;;;;;;;6.93;2.05;;;26.40;33.50;;;;;;4994845;28;20054;-78
2023/05/01 10:59:57;;;;;;;7.22;2.28;;;26.50;34.80;;;;;;4996173;28;20053;-78
2023/05/01 11:02:25;;;;;;;4.95;2.10;;;27.00;32.70;;;;;;4994102;28;20056;-78
2023/05/01 11:04:52;;;;;;;3.60;2.00;;;27.40;32.60;;;;;;4996571;28;20056;-78
2023/05/01 11:07:21;;;;;;;5.38;2.22;;;27.50;31.10;;;;;;4996823;28;20611;-78
2023/05/01 11:09:58;;;;;;;5.30;1.80;;;27.50;31.10;;;;;;4994858;28;20506;-78
2023/05/01 11:12:44;;;;;;;6.50;1.95;;;27.40;31.30;;;;;;4995456;28;20111;-78
2023/05/01 11:15:12;;;;;;;5.38;2.15;;;28.00;31.40;;;;;;4996080;28;20499;-78
2023/05/01 11:17:39;;;;;;;4.63;2.13;;;28.10;28.90;;;;;;4994565;28;20062;-77
2023/05/01 11:20:09;;;;;;;5.72;2.35;;;27.40;29.50;;;;;;4995603;28;20141;-78
2023/05/01 11:22:38;;;;;;;5.05;1.92;;;27.00;29.30;;;;;;5007449;28;20076;-77
2023/05/01 11:25:20;;;;;;;6.50;1.85;;;27.20;30.80;;;;;;4995673;28;20057;-78
2023/05/01 11:27:51;;;;;;;5.30;1.95;;;27.00;30.60;;;;;;4995992;28;20061;-78
2023/05/01 11:30:19;;;;;;;6.10;2.42;;;26.50;30.70;;;;;;4995637;28;20387;-78
2023/05/01 11:32:48;;;;;;;7.57;2.33;;;26.10;31.90;;;;;;4995853;28;20394;-78
2023/05/01 11:35:26;;;;;;;5.43;1.90;;;25.60;31.40;;;;;;4995956;28;20069;-77
2023/05/01 11:37:56;;;;;;;6.00;2.40;;;25.60;32.30;;;;;;4994231;28;20060;-78
2023/05/01 11:40:29;;;;;;;6.32;2.20;;;25.40;32.40;;;;;;4996105;28;20505;-78
2023/05/01 11:43:07;;;;;;;4.90;1.95;;;25.40;32.00;;;;;;4995418;28;20075;-77
2023/05/01 11:45:35;;;;;;;5.28;2.25;;;25.80;33.00;;;;;;4994022;28;20435;-78
2023/05/01 11:48:03;;;;;;;4.50;1.90;;;26.40;32.50;;;;;;4994518;28;21047;-78
2023/05/01 11:50:35;;;;;;;4.68;2.00;;;26.70;31.60;;;;;;4993724;28;20082;-78
2023/05/01 11:53:14;;;;;;;6.95;2.47;;;26.90;32.40;;;;;;4994611;28;20071;-78
2023/05/01 11:55:42;;;;;;;6.65;2.15;;;27.00;32.10;;;;;;4995613;28;20135;-77
2023/05/01 11:58:09;;;;;;;7.70;2.20;;;27.30;32.10;;;;;;5010780;28;20049;-78
2023/05/01 12:00:40;;;;;;;5.72;1.80;;;27.70;32.80;;;;;;4993966;28;20074;-78
2023/05/01 12:03:12;;;;;;;6.00;2.13;;;27.10;30.80;;;;;;4995184;28;20062;-78
2023/05/01 12:05:43;;;;;;;5.43;1.98;;;26.40;30.60;;;;;;5008963;28;20076;-78
2023/05/01 12:08:22;;;;;;;4.47;2.10;;;25.50;31.00;;;;;;4993692;28;20061;-77
2023/05/01 12:10:54;;;;;;;8.80;2.55;;;25.60;32.60;;;;;;4995800;28;20062;-77
2023/05/01 12:13:22;;;;;;;5.38;2.00;;;26.20;31.90;;;;;;4993553;28;20104;-78
2023/05/01 12:15:54;;;;;;;5.68;2.28;;;26.80;32.30;;;;;;4994214;28;20054;-78
2023/05/01 12:18:21;;;;;;;5.05;1.90;;;26.90;32.40;;;;;;4993211;28;20136;-78
2023/05/01 12:20:51;;;;;;;4.85;1.92;;;26.40;29.90;;;;;;4992940;28;20058;-76
2023/05/01 12:23:31;;;;;;;5.45;2.20;;;26.00;31.90;;;;;;4995348;28;20046;-78
2023/05/01 12:25:59;;;;;;;6.75;2.28;;;26.60;33.80;;;;;;4994782;28;20045;-78
2023/05/01 12:28:26;;;;;;;7.97;2.60;;;27.30;31.60;;;;;;4993533;28;20050;-78
2023/05/01 12:31:00;;;;;;;6.15;2.17;;;26.90;32.20;;;;;;4995062;28;20763;-78
2023/05/01 12:33:30;;;;;;;8.57;2.22;;;27.40;29.90;;;;;;4995287;28;20054;-78
2023/05/01 12:36:09;;;;;;;6.75;2.50;;;27.10;30.20;;;;;;4993288;28;20071;-78
2023/05/01 12:38:37;;;;;;;7.72;2.58;;;27.20;31.80;;;;;;4991958;28;20050;-78
2023/05/01 12:41:07;;;;;;;9.55;2.88;;;27.50;31.30;;;;;;4992435;28;20050;-77
2023/05/01 12:43:36;;;;;;;6.93;2.83;;;27.80;30.90;;;;;;4991789;28;20054;-78
2023/05/01 12:46:04;;;;;;;6.68;2.97;;;27.80;31.90;;;;;;4994942;28;20045;-78
2023/05/01 12:48:34;;;;;;;5.15;2.00;;;27.80;31.60;;;;;;4994249;28;20141;-78
2023/05/01 12:51:01;;;;;;;4.63;2.22;;;28.10;30.60;;;;;;4994713;28;20052;-78
2023/05/01 12:53:29;;;;;;;10.40;3.78;;;27.70;30.40;;;;;;4994638;28;20062;-78
2023/05/01 12:55:57;;;;;;;9.77;2.42;;;27.30;31.40;;;;;;4995624;28;20054;-77